Time;durP1;ratioP1;P1;durP2;ratioP2;P2;SDS_P1;SDS_P2;PMS_P1;PMS_P2;Temp;Humidity;BMP_temperature;BMP_pressure;BME280_temperature;BME280_humidity;BME280_pressure;Samples;Min_cycle;Max_cycle;Signal;HPM_P1;HPM_P2
2023/10/31 00:00:15;;;;;;;0.00;0.00;;;;;;;9.82;100.00;99664.50;5094908;28;20127;-41
2023/10/31 00:02:41;;;;;;;0.00;0.00;;;;;;;9.86;100.00;99665.72;5113827;28;20122;-41
2023/10/31 00:05:06;;;;;;;0.00;0.00;;;;;;;9.81;100.00;99668.19;5114795;28;20389;-43
2023/10/31 00:07:31;;;;;;;0.00;0.00;;;;;;;9.84;100.00;99667.78;5116858;28;20369;-39
2023/10/31 00:09:57;;;;;;;0.00;0.00;;;;;;;9.88;100.00;99673.59;5119693;28;20104;-38
2023/10/31 00:12:22;;;;;;;0.00;0.00;;;;;;;9.91;100.00;99675.88;5123021;28;20054;-41
2023/10/31 00:14:47;;;;;;;0.00;0.00;;;;;;;9.95;100.00;99676.28;5120874;28;20419;-42
2023/10/31 00:17:13;;;;;;;0.00;0.00;;;;;;;9.98;100.00;99674.00;5116691;28;20183;-42
2023/10/31 00:19:38;;;;;;;0.00;0.00;;;;;;;9.97;100.00;99671.53;5114357;28;20035;-43
2023/10/31 00:22:04;;;;;;;0.00;0.00;;;;;;;9.98;100.00;99678.53;5079204;28;20035;-42
2023/10/31 00:24:29;;;;;;;0.00;0.00;;;;;;;9.97;100.00;99668.84;5095583;28;20034;-41
2023/10/31 00:26:55;;;;;;;0.00;0.00;;;;;;;9.96;100.00;99669.88;5112738;28;20059;-40
2023/10/31 00:29:20;;;;;;;0.00;0.00;;;;;;;9.97;100.00;99674.22;5112453;28;20123;-41
2023/10/31 00:31:45;;;;;;;0.00;0.00;;;;;;;9.97;100.00;99668.84;5112360;28;20066;-40
2023/10/31 00:34:11;;;;;;;0.00;0.00;;;;;;;9.99;100.00;99680.22;5114065;28;20029;-40
2023/10/31 00:36:36;;;;;;;0.00;0.00;;;;;;;9.99;100.00;99672.16;5114641;28;20058;-40
2023/10/31 00:39:01;;;;;;;0.00;0.00;;;;;;;10.01;100.00;99678.16;5112733;28;20038;-40
2023/10/31 00:41:27;;;;;;;0.00;0.00;;;;;;;10.01;100.00;99684.34;5114057;28;20028;-39
2023/10/31 00:43:52;;;;;;;0.00;0.00;;;;;;;10.03;100.00;99681.44;5113583;28;20101;-39
2023/10/31 00:46:17;;;;;;;0.00;0.00;;;;;;;10.03;100.00;99678.75;5112753;28;20059;-40
2023/10/31 00:48:43;;;;;;;0.00;0.00;;;;;;;10.02;100.00;99686.00;5112102;28;20059;-40
2023/10/31 00:51:08;;;;;;;0.00;0.00;;;;;;;10.02;100.00;99679.78;5111860;28;20049;-40
2023/10/31 00:53:33;;;;;;;0.00;0.00;;;;;;;10.00;100.00;99681.84;5093354;28;20016;-40
2023/10/31 00:55:59;;;;;;;0.00;0.00;;;;;;;9.99;100.00;99696.34;5111520;28;20213;-39
2023/10/31 00:58:24;;;;;;;0.00;0.00;;;;;;;9.96;100.00;99696.75;5111386;28;20442;-41
2023/10/31 01:00:49;;;;;;;0.00;0.00;;;;;;;9.94;100.00;99709.56;5111463;28;20038;-44
2023/10/31 01:03:15;;;;;;;0.00;0.00;;;;;;;9.91;100.00;99709.97;5111164;28;20044;-43
2023/10/31 01:05:40;;;;;;;0.00;0.00;;;;;;;9.86;100.00;99705.22;5111411;28;20058;-42
2023/10/31 01:08:05;;;;;;;0.00;0.00;;;;;;;9.85;100.00;99706.25;5110891;28;20027;-43
2023/10/31 01:10:31;;;;;;;0.00;0.00;;;;;;;9.83;100.00;99719.06;5110830;28;20032;-42
2023/10/31 01:12:56;;;;;;;0.00;0.00;;;;;;;9.80;100.00;99712.25;5111028;28;20342;-41
2023/10/31 01:15:21;;;;;;;0.00;0.00;;;;;;;9.76;100.00;99718.22;5111155;28;20028;-41
2023/10/31 01:17:47;;;;;;;0.00;0.00;;;;;;;9.72;100.00;99712.44;5111417;28;20473;-41
2023/10/31 01:20:12;;;;;;;0.00;0.00;;;;;;;9.70;100.00;99719.03;5111279;28;20423;-42
2023/10/31 01:22:37;;;;;;;0.00;0.00;;;;;;;9.67;100.00;99720.28;5110873;28;20023;-39
2023/10/31 01:25:03;;;;;;;0.00;0.00;;;;;;;9.66;100.00;99723.97;5111160;28;20038;-39
2023/10/31 01:27:29;;;;;;;0.00;0.00;;;;;;;9.65;100.00;99727.72;5110971;28;20153;-37
2023/10/31 01:29:54;;;;;;;0.00;0.00;;;;;;;9.65;100.00;99730.41;5110915;28;20068;-40
2023/10/31 01:32:19;;;;;;;0.00;0.00;;;;;;;9.63;100.00;99724.38;5111211;28;20058;-39
2023/10/31 01:34:45;;;;;;;0.00;0.00;;;;;;;9.65;100.00;99733.91;5110358;28;20032;-38
2023/10/31 01:37:10;;;;;;;0.00;0.00;;;;;;;9.64;100.00;99732.25;5092663;28;20032;-38
2023/10/31 01:39:36;;;;;;;0.00;0.00;;;;;;;9.64;100.00;99736.81;5110829;28;20027;-39
2023/10/31 01:42:01;;;;;;;0.00;0.00;;;;;;;9.61;100.00;99738.03;5110861;28;20050;-39
2023/10/31 01:44:27;;;;;;;0.00;0.00;;;;;;;9.59;100.00;99741.97;5110412;28;20028;-40
2023/10/31 01:46:52;;;;;;;0.00;0.00;;;;;;;9.56;100.00;99751.25;5110805;28;20032;-44
2023/10/31 01:49:17;;;;;;;0.00;0.00;;;;;;;9.56;100.00;99751.25;5111369;28;20078;-42
2023/10/31 01:51:44;;;;;;;0.00;0.00;;;;;;;9.54;100.00;99756.00;5100563;28;20027;-41
2023/10/31 01:54:10;;;;;;;0.00;0.00;;;;;;;9.55;100.00;99754.13;5120208;28;20448;-43
2023/10/31 01:56:36;;;;;;;0.00;0.00;;;;;;;9.54;100.00;99757.84;5118936;28;20058;-41
2023/10/31 01:59:01;;;;;;;0.00;0.00;;;;;;;9.54;100.00;99769.41;5119109;28;20028;-42
2023/10/31 02:01:27;;;;;;;0.00;0.00;;;;;;;9.56;100.00;99761.19;5117660;28;20032;-44
2023/10/31 02:03:53;;;;;;;0.00;0.00;;;;;;;9.59;100.00;99768.81;5114487;28;20759;-41
2023/10/31 02:06:18;;;;;;;0.00;0.00;;;;;;;9.62;100.00;99765.72;5096721;28;20392;-41
2023/10/31 02:08:44;;;;;;;0.00;0.00;;;;;;;9.67;100.00;99776.69;5114883;28;20027;-40
2023/10/31 02:11:10;;;;;;;0.00;0.00;;;;;;;9.70;100.00;99781.66;5112389;28;20059;-40
2023/10/31 02:13:36;;;;;;;0.00;0.00;;;;;;;9.74;100.00;99777.56;5113783;28;20513;-41
2023/10/31 02:16:01;;;;;;;0.00;0.00;;;;;;;9.75;100.00;99773.81;5113611;28;20035;-41
2023/10/31 02:18:27;;;;;;;0.00;0.00;;;;;;;9.76;100.00;99777.34;5114429;28;20027;-40
2023/10/31 02:20:52;;;;;;;0.00;0.00;;;;;;;9.75;100.00;99781.88;5113903;28;20493;-40
2023/10/31 02:23:18;;;;;;;0.00;0.00;;;;;;;9.77;100.00;99781.66;5113982;28;20477;-41
2023/10/31 02:25:43;;;;;;;0.00;0.00;;;;;;;9.76;100.00;99782.72;5114473;28;20027;-41
2023/10/31 02:28:09;;;;;;;0.00;0.00;;;;;;;9.73;100.00;99783.94;5114438;28;20020;-41
2023/10/31 02:30:35;;;;;;;0.00;0.00;;;;;;;9.71;100.00;99780.63;5114570;28;20114;-42
2023/10/31 02:33:01;;;;;;;0.00;0.00;;;;;;;9.70;100.00;99778.97;5113715;28;20026;-43
2023/10/31 02:35:27;;;;;;;0.00;0.00;;;;;;;9.67;100.00;99785.59;5113206;28;20028;-43
2023/10/31 02:37:52;;;;;;;0.00;0.00;;;;;;;9.65;100.00;99786.81;5093943;28;20362;-44
2023/10/31 02:40:18;;;;;;;0.00;0.00;;;;;;;9.63;100.00;99781.63;5113325;28;20111;-45
2023/10/31 02:42:43;;;;;;;0.00;0.00;;;;;;;9.61;100.00;99789.09;5113715;28;20085;-42
2023/10/31 02:45:09;;;;;;;0.00;0.00;;;;;;;9.61;100.00;99785.53;5113231;28;20016;-42
2023/10/31 02:47:34;;;;;;;0.00;0.00;;;;;;;9.53;100.00;99789.25;5113059;28;20027;-42
2023/10/31 02:50:00;;;;;;;0.00;0.00;;;;;;;9.49;100.00;99788.00;5112940;28;20119;-42
2023/10/31 02:52:25;;;;;;;0.00;0.00;;;;;;;9.51;100.00;99779.75;5113331;28;20027;-42
2023/10/31 02:54:50;;;;;;;0.00;0.00;;;;;;;9.50;100.00;99783.44;5113080;28;20115;-41
2023/10/31 02:57:16;;;;;;;0.00;0.00;;;;;;;9.50;100.00;99789.63;5113748;28;20032;-42
2023/10/31 02:59:42;;;;;;;0.00;0.00;;;;;;;9.51;100.00;99790.50;5113221;28;20072;-41
2023/10/31 03:02:07;;;;;;;0.00;0.00;;;;;;;9.51;100.00;99798.56;5112520;28;20040;-42
2023/10/31 03:04:33;;;;;;;0.00;0.00;;;;;;;9.47;100.00;99797.28;5113086;28;20031;-40
2023/10/31 03:06:58;;;;;;;0.00;0.00;;;;;;;9.40;100.00;99795.41;5112767;28;20024;-41
2023/10/31 03:09:23;;;;;;;0.00;0.00;;;;;;;9.38;100.00;99800.16;5113175;28;20477;-43
2023/10/31 03:11:49;;;;;;;0.00;0.00;;;;;;;9.40;100.00;99803.47;5112907;28;20491;-42
2023/10/31 03:14:14;;;;;;;0.00;0.00;;;;;;;9.37;100.00;99797.66;5112858;28;20546;-42
2023/10/31 03:16:39;;;;;;;0.00;0.00;;;;;;;9.32;100.00;99803.63;5113216;28;20027;-41
2023/10/31 03:19:05;;;;;;;0.00;0.00;;;;;;;9.34;100.00;99811.47;5128990;27;20126;-41
2023/10/31 03:21:30;;;;;;;0.00;0.00;;;;;;;9.31;100.00;99818.06;5114080;28;20028;-42
2023/10/31 03:23:56;;;;;;;0.00;0.00;;;;;;;9.30;100.00;99816.41;5115376;28;20105;-40
2023/10/31 03:26:22;;;;;;;0.00;0.00;;;;;;;9.23;100.00;99811.00;5116028;28;20056;-40
2023/10/31 03:28:47;;;;;;;0.00;0.00;;;;;;;9.24;100.00;99811.81;5114520;28;20080;-41
2023/10/31 03:31:13;;;;;;;0.00;0.00;;;;;;;9.25;100.00;99810.00;5112749;28;20081;-41
2023/10/31 03:33:39;;;;;;;0.00;0.00;;;;;;;9.24;100.00;99814.50;5112868;28;20032;-41
2023/10/31 03:36:05;;;;;;;0.00;0.00;;;;;;;9.23;100.00;99824.44;5112720;28;20032;-41
2023/10/31 03:38:39;;;;;;;0.00;0.00;;;;;;;9.23;100.00;99816.38;5112737;28;20058;-40
2023/10/31 03:41:05;;;;;;;0.00;0.00;;;;;;;9.19;100.00;99814.31;5112643;28;20073;-40
2023/10/31 03:43:30;;;;;;;0.00;0.00;;;;;;;9.21;100.00;99815.75;5112595;28;20032;-41
2023/10/31 03:45:56;;;;;;;0.00;0.00;;;;;;;9.22;100.00;99809.34;5122912;27;20065;-40
2023/10/31 03:48:21;;;;;;;0.00;0.00;;;;;;;9.28;100.00;99812.28;5132817;27;20472;-41
2023/10/31 03:50:49;;;;;;;0.00;0.00;;;;;;;9.28;100.00;99813.09;5132849;27;20072;-42
2023/10/31 03:53:14;;;;;;;0.00;0.00;;;;;;;9.28;100.00;99814.97;5112830;27;20019;-41
2023/10/31 03:55:40;;;;;;;0.00;0.00;;;;;;;9.30;100.00;99815.59;5112595;28;20111;-43
2023/10/31 03:58:05;;;;;;;0.00;0.00;;;;;;;9.30;100.00;99816.41;5112815;28;20027;-42
2023/10/31 04:00:31;;;;;;;0.00;0.00;;;;;;;9.30;100.00;99816.41;5112169;28;20127;-43
2023/10/31 04:02:56;;;;;;;0.00;0.00;;;;;;;9.30;100.00;99821.78;5112701;28;20047;-41
2023/10/31 04:05:22;;;;;;;0.00;0.00;;;;;;;9.31;100.00;99834.19;5114254;28;20016;-42
2023/10/31 04:07:48;;;;;;;0.00;0.00;;;;;;;9.33;100.00;99836.69;5113005;28;20338;-41
2023/10/31 04:10:13;;;;;;;0.00;0.00;;;;;;;9.32;100.00;99840.38;5112550;28;20030;-39
2023/10/31 04:12:39;;;;;;;0.00;0.00;;;;;;;9.32;100.00;99846.59;5112122;28;20031;-39
2023/10/31 04:15:05;;;;;;;0.00;0.00;;;;;;;9.34;100.00;99849.88;5111961;28;20038;-38
2023/10/31 04:17:31;;;;;;;0.00;0.00;;;;;;;9.38;100.00;99850.34;5112353;28;20097;-40
2023/10/31 04:19:56;;;;;;;0.00;0.00;;;;;;;9.39;100.00;99858.19;5111960;28;20056;-39
2023/10/31 04:22:21;;;;;;;0.00;0.00;;;;;;;9.35;100.00;99858.78;5112160;28;20067;-38
2023/10/31 04:24:47;;;;;;;0.00;0.00;;;;;;;9.32;100.00;99851.97;5111607;28;20084;-38
2023/10/31 04:27:12;;;;;;;0.00;0.00;;;;;;;9.33;100.00;99868.91;5111585;28;20024;-39
2023/10/31 04:29:38;;;;;;;0.00;0.00;;;;;;;9.33;100.00;99860.84;5112346;28;20096;-39
2023/10/31 04:32:03;;;;;;;0.00;0.00;;;;;;;9.30;100.00;99870.13;5111581;28;20027;-39
2023/10/31 04:34:28;;;;;;;0.00;0.00;;;;;;;9.28;100.00;99871.34;5111447;28;20498;-37
2023/10/31 04:36:54;;;;;;;0.00;0.00;;;;;;;9.26;100.00;99874.22;5111898;28;20028;-39
2023/10/31 04:39:19;;;;;;;0.00;0.00;;;;;;;9.23;100.00;99869.25;5112520;28;20409;-38
2023/10/31 04:41:44;;;;;;;0.00;0.00;;;;;;;9.20;100.00;99875.84;5111571;28;20023;-39
2023/10/31 04:44:10;;;;;;;0.00;0.00;;;;;;;9.21;100.00;99879.34;5112031;28;20111;-38
2023/10/31 04:46:35;;;;;;;0.00;0.00;;;;;;;9.21;100.00;99880.16;5111587;28;20054;-39
2023/10/31 04:49:00;;;;;;;0.00;0.00;;;;;;;9.19;100.00;99878.75;5111831;28;20042;-38
2023/10/31 04:51:26;;;;;;;0.00;0.00;;;;;;;9.20;100.00;99888.44;5108334;28;20023;-39
2023/10/31 04:53:51;;;;;;;0.00;0.00;;;;;;;9.22;100.00;99883.72;5109511;28;20077;-39
2023/10/31 04:56:17;;;;;;;0.00;0.00;;;;;;;9.22;100.00;99889.91;5109782;28;20376;-38
2023/10/31 04:58:42;;;;;;;0.00;0.00;;;;;;;9.20;100.00;99891.94;5109943;28;20035;-39
2023/10/31 05:01:09;;;;;;;0.00;0.00;;;;;;;9.19;100.00;99905.59;5108940;28;20027;-39
2023/10/31 05:03:34;;;;;;;0.00;0.00;;;;;;;9.19;100.00;99906.41;5113903;28;20078;-39
2023/10/31 05:05:59;;;;;;;0.00;0.00;;;;;;;9.20;100.00;99901.84;5120201;28;20050;-40
2023/10/31 05:08:25;;;;;;;0.00;0.00;;;;;;;9.21;100.00;99906.19;5119382;28;20043;-39
2023/10/31 05:10:50;;;;;;;0.00;0.00;;;;;;;9.22;100.00;99911.38;5100285;28;20028;-41
2023/10/31 05:13:15;;;;;;;0.00;0.00;;;;;;;9.25;100.00;99910.16;5112702;28;20552;-38
2023/10/31 05:15:41;;;;;;;0.00;0.00;;;;;;;9.25;100.00;99912.03;5109593;28;20024;-38
2023/10/31 05:18:06;;;;;;;0.00;0.00;;;;;;;9.28;100.00;99912.44;5109672;28;20039;-39
2023/10/31 05:20:31;;;;;;;0.00;0.00;;;;;;;9.30;100.00;99913.09;5097043;28;20031;-39
2023/10/31 05:22:56;;;;;;;0.00;0.00;;;;;;;9.30;100.00;99913.09;5108739;28;20072;-39
2023/10/31 05:25:22;;;;;;;0.00;0.00;;;;;;;9.29;100.00;99916.78;5108000;28;20059;-39
2023/10/31 05:27:48;;;;;;;0.00;0.00;;;;;;;9.29;100.00;99916.78;5108765;28;20059;-38
2023/10/31 05:30:14;;;;;;;0.00;0.00;;;;;;;9.28;100.00;99915.13;5095964;28;20331;-38
2023/10/31 05:32:39;;;;;;;0.00;0.00;;;;;;;9.32;100.00;99921.78;5110704;28;20546;-38
2023/10/31 05:35:05;;;;;;;0.00;0.00;;;;;;;9.33;100.00;99915.38;5110593;28;20035;-39
2023/10/31 05:37:30;;;;;;;0.00;0.00;;;;;;;9.34;100.00;99925.06;5111018;28;20035;-38
2023/10/31 05:39:56;;;;;;;0.00;0.00;;;;;;;9.30;100.00;99921.13;5110783;28;20024;-38
2023/10/31 05:42:21;;;;;;;0.00;0.00;;;;;;;9.33;100.00;99919.91;5091570;28;20101;-39
2023/10/31 05:44:46;;;;;;;0.00;0.00;;;;;;;9.32;100.00;99926.28;5096657;28;20042;-39
2023/10/31 05:47:12;;;;;;;0.00;0.00;;;;;;;9.35;100.00;99928.63;5110859;28;20047;-40
2023/10/31 05:49:37;;;;;;;0.00;0.00;;;;;;;9.34;100.00;99929.63;5112305;28;20115;-38
2023/10/31 05:52:03;;;;;;;0.00;0.00;;;;;;;9.31;100.00;99938.91;5111049;28;20066;-38
2023/10/31 05:54:28;;;;;;;0.00;0.00;;;;;;;9.28;100.00;99939.28;5111574;28;20115;-38
2023/10/31 05:56:53;;;;;;;0.00;0.00;;;;;;;9.30;100.00;99944.47;5112520;28;20141;-39
2023/10/31 05:59:19;;;;;;;0.00;0.00;;;;;;;9.32;100.00;99948.63;5111312;28;20477;-40
2023/10/31 06:01:44;;;;;;;0.00;0.00;;;;;;;9.32;100.00;99943.25;5103569;28;20028;-38
2023/10/31 06:04:09;;;;;;;0.00;0.00;;;;;;;9.32;100.00;99942.41;5092943;28;20055;-39
2023/10/31 06:06:38;;;;;;;0.00;0.00;;;;;;;9.31;100.00;99938.06;5110437;28;20060;-39
2023/10/31 06:09:04;;;;;;;0.00;0.00;;;;;;;9.28;100.00;99936.63;5114573;28;20026;-38
2023/10/31 06:11:29;;;;;;;0.00;0.00;;;;;;;9.29;100.00;99946.31;5112813;28;20163;-39
2023/10/31 06:13:55;;;;;;;0.00;0.00;;;;;;;9.28;100.00;99947.34;5110201;28;20045;-38
2023/10/31 06:16:21;;;;;;;0.00;0.00;;;;;;;9.25;100.00;99953.13;5111839;28;20031;-41
2023/10/31 06:18:46;;;;;;;0.00;0.00;;;;;;;9.22;100.00;99953.50;5111661;28;20030;-39
2023/10/31 06:21:11;;;;;;;0.00;0.00;;;;;;;9.21;100.00;99949.16;5112123;28;20036;-39
2023/10/31 06:23:38;;;;;;;0.00;0.00;;;;;;;9.17;100.00;99966.69;5110896;28;20319;-39
2023/10/31 06:26:03;;;;;;;0.00;0.00;;;;;;;9.15;100.00;99960.69;5111272;28;20055;-39
2023/10/31 06:28:29;;;;;;;0.00;0.00;;;;;;;9.15;100.00;99963.34;5112531;28;20470;-39
2023/10/31 06:30:54;;;;;;;0.00;0.00;;;;;;;9.14;100.00;99967.91;5112713;28;20421;-37
2023/10/31 06:33:19;;;;;;;0.00;0.00;;;;;;;9.15;100.00;99974.09;5109214;28;20035;-39
2023/10/31 06:35:45;;;;;;;0.00;0.00;;;;;;;9.17;100.00;99972.06;5113854;28;20015;-39
2023/10/31 06:38:10;;;;;;;0.00;0.00;;;;;;;9.17;100.00;99972.06;5116414;28;20482;-39
2023/10/31 06:40:35;;;;;;;0.00;0.00;;;;;;;9.21;100.00;99976.81;5115741;28;20027;-38
2023/10/31 06:43:01;;;;;;;0.00;0.00;;;;;;;9.25;100.00;99985.34;5120133;28;20078;-40
2023/10/31 06:45:32;;;;;;;0.00;0.00;;;;;;;9.29;100.00;99991.13;5118286;28;20058;-40
2023/10/31 06:47:58;;;;;;;0.00;0.00;;;;;;;9.33;100.00;99987.06;5121039;28;20034;-42
2023/10/31 06:50:24;;;;;;;0.00;0.00;;;;;;;9.35;100.00;99991.19;5115192;28;20028;-43
2023/10/31 06:52:49;;;;;;;0.00;0.00;;;;;;;9.38;100.00;99989.97;5114176;28;20092;-43
2023/10/31 06:55:15;;;;;;;0.00;0.00;;;;;;;9.40;100.00;99993.28;5103819;28;20027;-41
2023/10/31 06:57:40;;;;;;;0.00;0.00;;;;;;;9.41;100.00;99990.41;5113804;28;20031;-41
2023/10/31 07:00:09;;;;;;;0.00;0.00;;;;;;;9.45;100.00;99997.06;5113394;28;20031;-41
2023/10/31 07:02:35;;;;;;;0.00;0.00;;;;;;;9.46;100.00;100003.25;5113021;27;20052;-41
2023/10/31 07:05:00;;;;;;;0.00;0.00;;;;;;;9.49;100.00;100013.63;5115598;28;20046;-40
2023/10/31 07:07:25;;;;;;;0.00;0.00;;;;;;;9.52;100.00;100012.38;5117015;28;20020;-40
2023/10/31 07:09:51;;;;;;;0.00;0.00;;;;;;;9.52;100.00;100012.38;5108315;28;20027;-39
2023/10/31 07:12:16;;;;;;;0.00;0.00;;;;;;;9.51;100.00;100016.13;5113167;28;20042;-40
2023/10/31 07:14:42;;;;;;;0.00;0.00;;;;;;;9.52;100.00;100025.81;5104427;28;20027;-40
2023/10/31 07:17:07;;;;;;;0.00;0.00;;;;;;;9.49;100.00;100021.66;5110978;27;20036;-40
2023/10/31 07:19:33;;;;;;;0.00;0.00;;;;;;;9.50;100.00;100035.94;5116159;28;20077;-38
2023/10/31 07:21:58;;;;;;;0.00;0.00;;;;;;;9.51;100.00;100034.91;5116088;28;20019;-38
2023/10/31 07:24:23;;;;;;;0.00;0.00;;;;;;;9.51;100.00;100032.22;5116663;28;20055;-39
2023/10/31 07:26:49;;;;;;;0.00;0.00;;;;;;;9.52;100.00;100033.88;5115355;28;20031;-39
2023/10/31 07:29:14;;;;;;;0.00;0.00;;;;;;;9.51;100.00;100048.34;5113227;27;20023;-39
2023/10/31 07:31:40;;;;;;;0.00;0.00;;;;;;;9.53;100.00;100051.66;5111978;27;20023;-39
2023/10/31 07:34:05;;;;;;;0.00;0.00;;;;;;;9.52;100.00;100050.00;5111958;28;20031;-40
2023/10/31 07:36:37;;;;;;;0.00;0.00;;;;;;;9.53;100.00;100051.66;5112426;27;20720;-38
2023/10/31 07:39:03;;;;;;;0.00;0.00;;;;;;;9.54;100.00;100047.94;5112944;28;20027;-39
2023/10/31 07:41:29;;;;;;;0.00;0.00;;;;;;;9.55;100.00;100060.34;5117623;27;20023;-37
2023/10/31 07:43:54;;;;;;;0.00;0.00;;;;;;;9.57;100.00;100047.56;5114904;27;20032;-39
2023/10/31 07:46:20;;;;;;;0.00;0.00;;;;;;;9.55;100.00;100050.44;5114387;27;20086;-39
2023/10/31 07:48:45;;;;;;;0.00;0.00;;;;;;;9.54;100.00;100051.47;5114062;27;20813;-39
2023/10/31 07:51:10;;;;;;;0.00;0.00;;;;;;;9.53;100.00;100046.28;5106766;27;20016;-40
2023/10/31 07:53:36;;;;;;;0.00;0.00;;;;;;;9.59;100.00;100050.88;5119421;27;20038;-39
2023/10/31 07:56:01;;;;;;;0.00;0.00;;;;;;;9.82;100.00;100050.63;5114176;27;20027;-40
2023/10/31 07:58:26;;;;;;;0.00;0.00;;;;;;;10.50;100.00;100059.72;5119706;27;20406;-41
2023/10/31 08:00:52;;;;;;;0.00;0.00;;;;;;;11.51;100.00;100058.09;5114544;27;20035;-39
2023/10/31 08:03:17;;;;;;;0.00;0.00;;;;;;;12.01;100.00;100067.41;5112390;27;20085;-38
2023/10/31 08:05:42;;;;;;;0.00;0.00;;;;;;;12.80;100.00;100073.56;5095817;28;20031;-38
2023/10/31 08:08:08;;;;;;;0.00;0.00;;;;;;;13.40;100.00;100078.63;5112167;28;20622;-39
2023/10/31 08:10:34;;;;;;;0.00;0.00;;;;;;;13.69;100.00;100074.47;5119319;27;20437;-38
2023/10/31 08:12:59;;;;;;;0.00;0.00;;;;;;;14.01;100.00;100050.84;5118268;28;20028;-38
2023/10/31 08:15:25;;;;;;;0.00;0.00;;;;;;;14.17;100.00;100010.72;5115610;28;20028;-39
2023/10/31 08:17:50;;;;;;;0.00;0.00;;;;;;;14.42;100.00;99991.66;5113236;28;20165;-38
2023/10/31 08:20:16;;;;;;;0.00;0.00;;;;;;;14.87;100.00;99980.44;5116230;28;20020;-39
2023/10/31 08:22:45;;;;;;;0.00;0.00;;;;;;;15.20;100.00;99981.84;5115332;28;20132;-40
2023/10/31 08:25:11;;;;;;;0.00;0.00;;;;;;;14.61;100.00;99985.22;5118266;27;20027;-40
2023/10/31 08:27:36;;;;;;;0.00;0.00;;;;;;;14.02;100.00;99981.34;5118409;28;20497;-39
2023/10/31 08:30:02;;;;;;;0.00;0.00;;;;;;;13.50;100.00;99989.75;5114198;28;20118;-41
2023/10/31 08:32:28;;;;;;;0.00;0.00;;;;;;;13.08;100.00;99996.72;5113402;28;20016;-40
2023/10/31 08:34:54;;;;;;;0.00;0.00;;;;;;;12.79;100.00;99993.59;5109058;27;20019;-39
2023/10/31 08:37:19;;;;;;;0.00;0.00;;;;;;;12.38;100.00;100007.53;5111072;27;20032;-39
2023/10/31 08:39:44;;;;;;;0.00;0.00;;;;;;;12.21;100.00;100012.56;5110394;27;20489;-39
2023/10/31 08:42:10;;;;;;;0.00;0.00;;;;;;;12.05;100.00;100017.38;5111023;28;20038;-39
2023/10/31 08:44:37;;;;;;;0.00;0.00;;;;;;;11.87;100.00;100017.22;5111301;28;20054;-40
2023/10/31 08:47:03;;;;;;;0.00;0.00;;;;;;;11.75;100.00;100018.88;5111670;28;20030;-38
2023/10/31 08:49:28;;;;;;;0.00;0.00;;;;;;;11.69;100.00;100030.47;5111836;28;20489;-39
2023/10/31 08:51:53;;;;;;;0.00;0.00;;;;;;;11.70;100.00;100030.28;5111070;28;20457;-38
2023/10/31 08:54:19;;;;;;;0.00;0.00;;;;;;;11.74;100.00;100033.38;5109392;28;20052;-39
2023/10/31 08:56:44;;;;;;;0.00;0.00;;;;;;;11.76;100.00;100044.78;5112447;28;20466;-40
2023/10/31 08:59:10;;;;;;;0.00;0.00;;;;;;;11.88;100.00;100056.63;5111972;28;20051;-38
2023/10/31 09:01:35;;;;;;;0.00;0.00;;;;;;;12.05;100.00;100062.41;5118146;27;20027;-39
2023/10/31 09:04:00;;;;;;;0.00;0.00;;;;;;;12.19;100.00;100063.19;5120650;27;20040;-39
2023/10/31 09:06:26;;;;;;;0.00;0.00;;;;;;;12.14;100.00;100071.09;5111723;27;20079;-39
2023/10/31 09:08:51;;;;;;;0.00;0.00;;;;;;;12.04;100.00;100066.97;5111798;28;20020;-39
2023/10/31 09:11:16;;;;;;;0.00;0.00;;;;;;;11.92;100.00;100076.72;5112499;28;20035;-39
2023/10/31 09:13:42;;;;;;;0.00;0.00;;;;;;;12.02;100.00;100077.13;5111645;28;20023;-40
2023/10/31 09:16:07;;;;;;;0.00;0.00;;;;;;;12.16;100.00;100080.63;5111158;27;20016;-40
2023/10/31 09:18:33;;;;;;;0.00;0.00;;;;;;;12.26;100.00;100086.41;5109641;28;20024;-39
2023/10/31 09:20:58;;;;;;;0.00;0.00;;;;;;;12.36;100.00;100090.56;5110647;28;20031;-40
2023/10/31 09:23:23;;;;;;;0.00;0.00;;;;;;;12.61;100.00;100087.97;5109796;28;20028;-39
2023/10/31 09:25:49;;;;;;;0.00;0.00;;;;;;;12.65;100.00;100083.81;5110078;28;20064;-39
2023/10/31 09:28:15;;;;;;;0.00;0.00;;;;;;;12.64;100.00;100087.56;5109777;28;20058;-40
2023/10/31 09:30:40;;;;;;;0.00;0.00;;;;;;;12.92;100.00;100085.34;5110727;28;20557;-40
2023/10/31 09:33:05;;;;;;;0.00;0.00;;;;;;;13.07;100.00;100095.03;5106550;28;20108;-38
2023/10/31 09:35:31;;;;;;;0.00;0.00;;;;;;;13.12;100.00;100089.81;5113986;27;20474;-38
2023/10/31 09:37:56;;;;;;;0.00;0.00;;;;;;;13.28;100.00;100085.78;5113389;27;20031;-39
2023/10/31 09:40:22;;;;;;;0.00;0.00;;;;;;;13.43;100.00;100090.88;5115603;27;20087;-39
2023/10/31 09:42:49;;;;;;;0.00;0.00;;;;;;;13.39;100.00;100080.50;5092608;28;20069;-40
2023/10/31 09:45:14;;;;;;;0.00;0.00;;;;;;;13.72;100.00;100078.59;5110272;28;20072;-39
2023/10/31 09:47:40;;;;;;;0.00;0.00;;;;;;;14.13;100.00;100080.69;5106121;28;21204;-40
2023/10/31 09:50:08;;;;;;;0.00;0.00;;;;;;;14.41;100.00;100079.38;5119915;28;20461;-40
2023/10/31 09:52:33;;;;;;;0.00;0.00;;;;;;;14.86;100.00;100069.03;5110171;28;20061;-39
2023/10/31 09:54:59;;;;;;;0.00;0.00;;;;;;;15.29;100.00;100065.28;5110860;28;20339;-38
2023/10/31 09:57:26;;;;;;;0.00;0.00;;;;;;;15.46;100.00;100068.16;5107488;28;20030;-41
2023/10/31 09:59:51;;;;;;;0.00;0.00;;;;;;;15.23;100.00;100068.09;5110350;28;20485;-40
2023/10/31 10:02:16;;;;;;;0.00;0.00;;;;;;;14.96;100.00;100073.91;5113123;28;20278;-42
2023/10/31 10:04:42;;;;;;;0.00;0.00;;;;;;;14.68;100.00;100080.72;5110599;28;20047;-40
2023/10/31 10:07:07;;;;;;;0.00;0.00;;;;;;;14.37;100.00;100080.84;5110567;28;20020;-40
2023/10/31 10:09:32;;;;;;;0.00;0.00;;;;;;;14.11;100.00;100088.19;5110056;28;20023;-40
2023/10/31 10:12:02;;;;;;;0.00;0.00;;;;;;;13.79;100.00;100098.28;5112708;28;20035;-40
2023/10/31 10:14:28;;;;;;;0.00;0.00;;;;;;;13.38;100.00;100100.47;5118346;28;20526;-40
2023/10/31 10:16:54;;;;;;;0.00;0.00;;;;;;;13.20;100.00;100107.63;5119053;28;20016;-37
2023/10/31 10:19:21;;;;;;;0.00;0.00;;;;;;;13.05;100.00;100107.94;5118688;27;20027;-40
2023/10/31 10:21:57;;;;;;;0.00;0.00;;;;;;;13.00;100.00;100111.25;5135308;27;20527;-39
2023/10/31 10:24:24;;;;;;;0.00;0.00;;;;;;;12.76;100.00;100123.63;5115981;27;20031;-38
2023/10/31 10:26:50;;;;;;;0.00;0.00;;;;;;;12.63;100.00;100129.91;5114283;28;20562;-41
2023/10/31 10:29:16;;;;;;;0.00;0.00;;;;;;;12.63;100.00;100131.78;5114813;28;20377;-40
2023/10/31 10:31:42;;;;;;;0.00;0.00;;;;;;;12.67;100.00;100130.34;5114986;28;20028;-41
2023/10/31 10:34:08;;;;;;;0.00;0.00;;;;;;;12.64;100.00;100130.75;5114465;27;20059;-39
2023/10/31 10:36:34;;;;;;;0.00;0.00;;;;;;;12.57;100.00;100129.94;5118849;27;20142;-38
2023/10/31 10:38:59;;;;;;;0.00;0.00;;;;;;;12.61;100.00;100136.56;5114761;27;20506;-39
2023/10/31 10:41:26;;;;;;;0.00;0.00;;;;;;;12.49;100.00;100136.41;5114184;28;20031;-40
2023/10/31 10:44:06;;;;;;;0.00;0.00;;;;;;;12.46;100.00;100143.06;5114425;28;20047;-39
2023/10/31 10:46:36;;;;;;;0.00;0.00;;;;;;;12.36;100.00;100156.16;5098163;28;20054;-41
2023/10/31 10:49:07;;;;;;;0.00;0.00;;;;;;;12.42;100.00;100159.88;5089729;28;20482;-42
2023/10/31 10:51:35;;;;;;;0.00;0.00;;;;;;;12.67;100.00;100170.81;5095330;28;20073;-44
2023/10/31 10:54:16;;;;;;;0.00;0.00;;;;;;;12.74;100.00;100177.88;5113498;27;20028;-45
2023/10/31 10:56:55;;;;;;;0.00;0.00;;;;;;;12.78;100.00;100180.97;5094246;28;20092;-44
2023/10/31 10:59:28;;;;;;;0.00;0.00;;;;;;;12.89;100.00;100183.00;5095541;28;20477;-42
2023/10/31 11:01:54;;;;;;;0.00;0.00;;;;;;;13.26;100.00;100187.84;5099135;28;20482;-42
2023/10/31 11:04:19;;;;;;;0.00;0.00;;;;;;;13.42;100.00;100175.72;5102285;27;20046;-43
2023/10/31 11:06:45;;;;;;;0.00;0.00;;;;;;;13.57;100.00;100168.16;5097178;28;20023;-44
2023/10/31 11:09:11;;;;;;;0.00;0.00;;;;;;;13.65;100.00;100178.69;5112224;27;20450;-42
2023/10/31 11:11:40;;;;;;;0.00;0.00;;;;;;;13.72;100.00;100176.78;5094584;28;20031;-41
2023/10/31 11:14:06;;;;;;;0.00;0.00;;;;;;;13.66;100.00;100158.72;5112862;28;20516;-40
2023/10/31 11:16:44;;;;;;;0.00;0.00;;;;;;;13.58;100.00;100162.50;5112632;28;20055;-38
2023/10/31 11:19:10;;;;;;;0.00;0.00;;;;;;;13.66;100.00;100161.41;5112096;28;20053;-40